createdAt,value
2018-06-15T00:02:07.582Z,11.94
2018-06-15T00:04:44.196Z,11.93
2018-06-15T00:07:20.639Z,11.98
2018-06-15T00:09:57.483Z,12.07
2018-06-15T00:12:33.716Z,12.08
2018-06-15T00:15:22.144Z,12.03
2018-06-15T00:17:59.395Z,12.12
2018-06-15T00:20:47.344Z,12.10
2018-06-15T00:23:39.883Z,12.03
2018-06-15T00:26:17.475Z,11.87
2018-06-15T00:28:53.513Z,11.88
2018-06-15T00:31:29.533Z,11.95
2018-06-15T00:34:06.216Z,11.91
2018-06-15T00:36:42.639Z,11.87
2018-06-15T00:39:18.551Z,11.76
2018-06-15T00:41:54.683Z,11.75
2018-06-15T00:44:30.140Z,11.70
2018-06-15T00:47:06.459Z,11.57
2018-06-15T00:49:42.543Z,11.52
2018-06-15T00:52:19.479Z,11.54
2018-06-15T00:55:07.246Z,11.60
2018-06-15T00:57:55.930Z,11.50
2018-06-15T01:00:33.045Z,11.40
2018-06-15T01:03:15.547Z,11.41
2018-06-15T01:05:55.112Z,11.35
2018-06-15T01:08:36.237Z,11.21
2018-06-15T01:11:11.887Z,11.15
2018-06-15T01:13:48.634Z,11.02
2018-06-15T01:16:24.947Z,10.91
2018-06-15T01:19:01.626Z,10.89
2018-06-15T01:21:49.353Z,10.96
2018-06-15T01:24:25.424Z,11.02
2018-06-15T01:27:01.945Z,10.90
2018-06-15T01:29:38.691Z,10.89
2018-06-15T01:32:15.181Z,10.94
2018-06-15T01:34:51.589Z,11.05
2018-06-15T01:37:29.132Z,11.11
2018-06-15T01:40:06.108Z,10.94
2018-06-15T01:42:43.411Z,10.77
2018-06-15T01:45:19.402Z,10.81
2018-06-15T01:47:55.116Z,11.01
2018-06-15T01:50:30.991Z,10.85
2018-06-15T01:53:07.007Z,10.69
2018-06-15T01:55:50.131Z,10.58
2018-06-15T01:58:26.131Z,10.50
2018-06-15T02:01:02.927Z,10.41
2018-06-15T02:03:38.765Z,10.33
2018-06-15T02:06:14.624Z,10.46
2018-06-15T02:08:50.565Z,10.37
2018-06-15T02:11:29.269Z,10.25
2018-06-15T02:14:06.047Z,10.24
2018-06-15T02:16:41.944Z,10.20
2018-06-15T02:19:17.629Z,10.25
2018-06-15T02:21:54.241Z,10.46
2018-06-15T02:24:30.173Z,10.38
2018-06-15T02:27:06.494Z,10.21
2018-06-15T02:29:43.127Z,10.38
2018-06-15T02:32:20.014Z,10.49
2018-06-15T02:34:56.890Z,10.42
2018-06-15T02:37:32.609Z,10.34
2018-06-15T02:40:08.877Z,10.31
2018-06-15T02:42:44.901Z,10.32
2018-06-15T02:45:20.507Z,10.33
2018-06-15T02:47:56.673Z,10.20
2018-06-15T02:50:32.538Z,10.19
2018-06-15T02:53:08.265Z,10.05
2018-06-15T02:55:43.958Z,10.05
2018-06-15T02:58:20.425Z,9.99
2018-06-15T03:00:59.204Z,10.06
2018-06-15T03:03:39.429Z,10.18
2018-06-15T03:06:15.073Z,10.17
2018-06-15T03:08:51.132Z,10.16
2018-06-15T03:11:27.627Z,10.22
2018-06-15T03:14:04.250Z,10.25
2018-06-15T03:16:40.290Z,10.23
2018-06-15T03:19:16.706Z,10.11
2018-06-15T03:21:52.521Z,10.08
2018-06-15T03:24:28.968Z,10.08
2018-06-15T03:27:05.523Z,10.17
2018-06-15T03:29:42.792Z,10.26
2018-06-15T03:32:19.013Z,10.39
2018-06-15T03:34:55.368Z,10.28
2018-06-15T03:37:32.280Z,10.22
2018-06-15T03:40:08.146Z,10.18
2018-06-15T03:42:44.576Z,10.16
2018-06-15T03:45:21.028Z,10.26
2018-06-15T03:47:58.028Z,10.31
2018-06-15T03:50:34.196Z,10.44
2018-06-15T03:53:09.894Z,10.50
2018-06-15T03:55:46.677Z,10.72
2018-06-15T03:58:23.624Z,10.82
2018-06-15T04:00:59.353Z,11.06
2018-06-15T04:04:22.536Z,11.16
2018-06-15T04:07:05.124Z,11.34
2018-06-15T04:09:41.062Z,11.61
2018-06-15T04:12:20.282Z,11.81
2018-06-15T04:14:56.852Z,12.01
2018-06-15T04:17:33.830Z,12.11
2018-06-15T04:20:11.018Z,12.40
2018-06-15T04:22:48.648Z,12.52
2018-06-15T04:25:25.526Z,12.50
2018-06-15T04:28:12.826Z,12.71
2018-06-15T04:30:50.293Z,12.79
2018-06-15T04:33:29.437Z,12.88
2018-06-15T04:36:11.530Z,12.99
2018-06-15T04:38:48.448Z,12.90
2018-06-15T04:41:42.400Z,12.74
2018-06-15T04:44:28.694Z,12.74
2018-06-15T04:47:05.594Z,12.74
2018-06-15T04:49:41.176Z,12.89
2018-06-15T04:52:17.107Z,12.81
2018-06-15T04:55:06.102Z,12.73
2018-06-15T04:57:42.982Z,12.77
2018-06-15T05:00:24.625Z,13.03
2018-06-15T05:03:08.680Z,13.17
2018-06-15T05:05:47.834Z,13.18
2018-06-15T05:08:26.114Z,13.35
2018-06-15T05:11:08.991Z,13.31
2018-06-15T05:13:47.645Z,13.49
2018-06-15T05:16:24.047Z,14.00
2018-06-15T05:19:00.695Z,14.19
2018-06-15T05:21:37.682Z,14.28
2018-06-15T05:24:15.774Z,14.09
2018-06-15T05:26:51.392Z,14.28
2018-06-15T05:29:27.792Z,14.30
2018-06-15T05:32:04.510Z,14.43
2018-06-15T05:34:43.269Z,14.39
2018-06-15T05:37:20.020Z,14.83
2018-06-15T05:40:00.269Z,15.03
2018-06-15T05:42:37.188Z,15.30
2018-06-15T05:45:14.083Z,15.96
2018-06-15T05:47:53.338Z,15.53
2018-06-15T05:50:29.559Z,16.11
2018-06-15T05:53:05.262Z,16.20
2018-06-15T05:55:43.723Z,16.83
2018-06-15T05:58:20.487Z,17.29
2018-06-15T06:00:55.952Z,17.09
2018-06-15T06:03:34.121Z,16.90
2018-06-15T06:09:15.936Z,17.46
2018-06-15T06:11:52.909Z,17.68
2018-06-15T06:14:31.097Z,18.18
2018-06-15T06:17:08.425Z,18.09
2018-06-15T06:19:45.166Z,19.32
2018-06-15T06:22:21.831Z,19.23
2018-06-15T06:25:00.199Z,19.59
2018-06-15T06:27:37.576Z,19.93
2018-06-15T06:30:14.342Z,19.98
2018-06-15T06:32:51.427Z,20.04
2018-06-15T06:35:28.583Z,19.53
2018-06-15T06:38:06.194Z,19.93
2018-06-15T06:40:42.565Z,19.67
2018-06-15T06:43:19.778Z,19.40
2018-06-15T06:45:56.890Z,19.39
2018-06-15T06:48:33.929Z,19.63
2018-06-15T06:51:11.612Z,19.91
2018-06-15T06:53:47.890Z,19.91
2018-06-15T06:56:24.635Z,19.17
2018-06-15T06:59:00.413Z,19.05
2018-06-15T07:01:36.246Z,19.60
2018-06-15T07:04:14.180Z,20.00
2018-06-15T07:06:52.098Z,19.70
2018-06-15T07:09:28.763Z,19.89
2018-06-15T07:12:05.054Z,20.22
2018-06-15T07:14:41.108Z,20.38
2018-06-15T07:17:17.088Z,20.51
2018-06-15T07:19:54.289Z,20.86
2018-06-15T07:22:32.853Z,21.19
2018-06-15T07:25:10.027Z,21.18
2018-06-15T07:27:47.464Z,20.81
2018-06-15T07:30:23.169Z,21.69
2018-06-15T07:33:01.036Z,21.58
2018-06-15T07:35:39.085Z,22.11
2018-06-15T07:38:15.792Z,22.62
2018-06-15T07:40:53.975Z,22.66
2018-06-15T07:43:38.456Z,22.21
2018-06-15T07:46:14.728Z,22.99
2018-06-15T07:48:51.729Z,23.86
2018-06-15T07:51:28.141Z,23.95
2018-06-15T07:54:04.751Z,24.41
2018-06-15T07:56:41.315Z,24.61
2018-06-15T07:59:18.325Z,25.45
2018-06-15T08:01:55.017Z,24.38
2018-06-15T08:04:33.828Z,24.57
2018-06-15T08:07:10.643Z,24.98
2018-06-15T08:09:46.224Z,24.70
2018-06-15T08:12:22.962Z,23.81
2018-06-15T08:14:59.925Z,24.62
2018-06-15T08:17:37.208Z,25.51
2018-06-15T08:20:14.207Z,24.05
2018-06-15T08:22:51.918Z,25.56
2018-06-15T08:25:31.789Z,25.61
2018-06-15T08:28:08.493Z,25.99
2018-06-15T08:30:45.538Z,26.94
2018-06-15T08:33:22.252Z,26.36
2018-06-15T08:35:58.963Z,25.45
2018-06-15T08:38:44.520Z,25.09
2018-06-15T08:41:22.815Z,24.95
2018-06-15T08:43:59.812Z,24.43
2018-06-15T08:46:36.704Z,23.45
2018-06-15T08:49:19.656Z,23.33
2018-06-15T08:51:59.464Z,22.87
2018-06-15T08:54:35.863Z,23.75
2018-06-15T08:57:15.471Z,24.39
2018-06-15T08:59:58.386Z,24.53
2018-06-15T09:02:34.783Z,25.06
2018-06-15T09:05:15.161Z,25.90
2018-06-15T09:07:57.339Z,25.61
2018-06-15T09:10:34.409Z,25.17
2018-06-15T09:13:11.855Z,25.57
2018-06-15T09:15:48.464Z,25.41
2018-06-15T09:18:25.462Z,24.96
2018-06-15T09:24:37.500Z,26.83
2018-06-15T09:27:28.869Z,27.29
2018-06-15T09:30:24.252Z,27.23
2018-06-15T09:33:01.238Z,28.87
2018-06-15T09:35:58.184Z,29.61
2018-06-15T09:38:44.533Z,28.93
2018-06-15T09:41:21.946Z,30.10
2018-06-15T09:43:59.249Z,32.00
2018-06-15T09:46:36.261Z,31.27
2018-06-15T09:49:12.119Z,30.21
2018-06-15T09:51:48.687Z,29.85
2018-06-15T09:54:24.477Z,29.00
2018-06-15T09:57:08.768Z,28.90
2018-06-15T09:59:47.837Z,27.42
2018-06-15T10:02:23.632Z,26.96
2018-06-15T10:04:59.981Z,27.84
2018-06-15T10:07:36.518Z,27.71
2018-06-15T10:10:13.224Z,27.64
2018-06-15T10:12:49.919Z,26.72
2018-06-15T10:15:25.540Z,27.08
2018-06-15T10:18:06.464Z,28.18
2018-06-15T10:20:47.076Z,28.30
2018-06-15T10:23:40.643Z,29.00
2018-06-15T10:26:17.385Z,29.95
2018-06-15T10:28:53.888Z,30.64
2018-06-15T10:31:34.071Z,31.12
2018-06-15T10:34:13.180Z,32.41
2018-06-15T10:36:55.352Z,30.94
2018-06-15T10:39:34.914Z,33.06
2018-06-15T10:42:12.248Z,33.29
2018-06-15T10:44:49.479Z,34.80
2018-06-15T10:47:26.702Z,34.73
2018-06-15T10:50:03.054Z,37.24
2018-06-15T10:52:42.324Z,35.89
2018-06-15T10:55:23.760Z,32.16
2018-06-15T10:58:01.389Z,32.85
2018-06-15T11:00:37.704Z,31.04
2018-06-15T11:03:13.948Z,28.51
2018-06-15T11:05:50.612Z,29.19
2018-06-15T11:08:26.868Z,29.37
2018-06-15T11:11:04.245Z,30.40
2018-06-15T11:13:41.250Z,32.06
2018-06-15T11:16:27.332Z,32.74
2018-06-15T11:19:39.035Z,33.78
2018-06-15T11:22:18.987Z,35.96
2018-06-15T11:25:03.478Z,36.30
2018-06-15T11:31:16.312Z,35.76
2018-06-15T11:33:53.698Z,36.98
2018-06-15T11:36:29.554Z,38.24
2018-06-15T11:39:08.308Z,35.48
2018-06-15T11:41:51.851Z,31.89
2018-06-15T11:44:29.187Z,28.71
2018-06-15T11:47:06.103Z,28.50
2018-06-15T11:49:47.167Z,26.70
2018-06-15T11:52:24.446Z,26.70
2018-06-15T11:55:19.389Z,26.39
2018-06-15T11:58:10.036Z,27.18
2018-06-15T12:00:55.239Z,27.46
2018-06-15T12:03:31.216Z,28.99
2018-06-15T12:06:07.707Z,33.48
2018-06-15T12:08:44.901Z,34.26
2018-06-15T12:11:22.459Z,35.45
2018-06-15T12:14:00.869Z,34.62
2018-06-15T12:16:46.375Z,34.45
2018-06-15T12:19:21.982Z,35.21
2018-06-15T12:21:58.615Z,36.13
2018-06-15T12:24:35.092Z,36.41
2018-06-15T12:27:11.630Z,35.55
2018-06-15T12:29:48.249Z,35.14
2018-06-15T12:32:26.203Z,32.37
2018-06-15T12:35:02.763Z,32.37
2018-06-15T12:37:38.944Z,35.37
2018-06-15T12:40:15.493Z,35.65
2018-06-15T12:42:51.574Z,36.64
2018-06-15T12:45:28.501Z,35.01
2018-06-15T12:48:08.562Z,33.64
2018-06-15T12:50:46.580Z,35.23
2018-06-15T12:53:22.439Z,33.24
2018-06-15T12:56:40.044Z,34.31
2018-06-15T12:59:15.662Z,32.53
2018-06-15T13:01:59.400Z,32.29
2018-06-15T13:04:37.851Z,31.33
2018-06-15T13:07:14.175Z,29.58
2018-06-15T13:09:50.246Z,34.45
2018-06-15T13:12:28.228Z,34.58
2018-06-15T13:15:53.584Z,32.54
2018-06-15T13:18:32.091Z,31.29
2018-06-15T13:21:22.088Z,29.06
2018-06-15T13:24:09.435Z,28.89
2018-06-15T13:26:45.596Z,27.50
2018-06-15T13:29:22.450Z,26.76
2018-06-15T13:32:07.406Z,26.87
2018-06-15T13:34:45.108Z,26.59
2018-06-15T13:37:22.740Z,26.40
2018-06-15T13:39:59.959Z,27.07
2018-06-15T13:42:36.505Z,27.86
2018-06-15T13:45:12.716Z,28.52
2018-06-15T13:47:48.412Z,32.89
2018-06-15T13:50:24.953Z,34.26
2018-06-15T13:53:03.955Z,34.36
2018-06-15T13:55:40.302Z,36.25
2018-06-15T13:58:16.427Z,33.17
2018-06-15T14:00:52.092Z,34.77
2018-06-15T14:03:27.965Z,36.19
2018-06-15T14:06:04.542Z,37.07
2018-06-15T14:08:40.744Z,38.75
2018-06-15T14:11:17.311Z,39.58
2018-06-15T14:13:54.383Z,41.05
2018-06-15T14:16:30.785Z,39.23
2018-06-15T14:19:07.213Z,39.41
2018-06-15T14:21:43.645Z,35.47
2018-06-15T14:24:42.226Z,33.31
2018-06-15T14:27:18.668Z,30.77
2018-06-15T14:29:55.593Z,30.62
2018-06-15T14:32:31.612Z,29.83
2018-06-15T14:35:08.691Z,29.36
2018-06-15T14:37:45.513Z,28.45
2018-06-15T14:40:21.731Z,27.65
2018-06-15T14:42:57.759Z,28.17
2018-06-15T14:45:33.945Z,28.23
2018-06-15T14:48:09.672Z,27.52
2018-06-15T14:50:45.390Z,27.27
2018-06-15T14:53:22.353Z,26.53
2018-06-15T14:55:59.569Z,26.31
2018-06-15T14:58:35.721Z,26.66
2018-06-15T15:01:13.086Z,26.26
2018-06-15T15:03:53.746Z,25.70
2018-06-15T15:06:36.591Z,26.31
2018-06-15T15:09:19.526Z,26.13
2018-06-15T15:12:02.618Z,26.26
2018-06-15T15:14:41.706Z,26.57
2018-06-15T15:17:27.583Z,26.85
2018-06-15T15:20:32.415Z,26.88
2018-06-15T15:23:09.322Z,26.75
2018-06-15T15:25:46.386Z,27.61
2018-06-15T15:28:22.379Z,28.47
2018-06-15T15:30:58.422Z,28.10
2018-06-15T15:33:34.171Z,32.38
2018-06-15T15:36:16.793Z,36.41
2018-06-15T15:38:54.613Z,38.02
2018-06-15T15:41:30.954Z,39.08
2018-06-15T15:44:08.374Z,37.51
2018-06-15T15:46:46.765Z,38.66
2018-06-15T15:49:24.965Z,35.24
2018-06-15T15:52:05.259Z,34.54
2018-06-15T15:54:41.993Z,35.40
2018-06-15T15:57:18.661Z,33.32
2018-06-15T15:59:54.740Z,34.42
2018-06-15T16:02:31.869Z,33.24
2018-06-15T16:05:09.731Z,32.42
2018-06-15T16:07:47.720Z,31.73
2018-06-15T16:10:23.855Z,30.62
2018-06-15T16:13:01.213Z,29.49
2018-06-15T16:15:44.777Z,28.21
2018-06-15T16:18:32.559Z,27.22
2018-06-15T16:21:09.212Z,26.94
2018-06-15T16:23:46.410Z,27.62
2018-06-15T16:26:22.657Z,28.81
2018-06-15T16:28:59.249Z,29.02
2018-06-15T16:31:35.187Z,27.84
2018-06-15T16:34:11.782Z,27.77
2018-06-15T16:36:47.627Z,28.53
2018-06-15T16:39:23.538Z,27.33
2018-06-15T16:41:59.773Z,26.94
2018-06-15T16:44:37.347Z,26.25
2018-06-15T16:47:13.123Z,26.45
2018-06-15T16:49:49.669Z,26.75
2018-06-15T16:52:25.312Z,26.83
2018-06-15T16:55:01.432Z,26.27
2018-06-15T16:57:39.582Z,26.34
2018-06-15T17:00:17.646Z,26.81
2018-06-15T17:02:54.614Z,27.34
2018-06-15T17:05:30.183Z,26.15
2018-06-15T17:08:05.791Z,25.63
2018-06-15T17:10:41.727Z,25.20
2018-06-15T17:13:17.306Z,25.40
2018-06-15T17:15:55.134Z,25.59
2018-06-15T17:18:30.704Z,25.23
2018-06-15T17:21:06.793Z,25.11
2018-06-15T17:23:43.031Z,25.44
2018-06-15T17:26:19.218Z,24.79
2018-06-15T17:28:55.574Z,24.51
2018-06-15T17:31:31.276Z,24.48
2018-06-15T17:34:07.197Z,24.53
2018-06-15T17:36:44.737Z,24.75
2018-06-15T17:39:21.145Z,24.39
2018-06-15T17:41:57.687Z,24.41
2018-06-15T17:44:42.800Z,24.36
2018-06-15T17:47:18.343Z,24.12
2018-06-15T17:49:54.397Z,23.92
2018-06-15T17:52:31.322Z,23.99
2018-06-15T17:55:08.462Z,23.84
2018-06-15T17:57:45.042Z,23.57
2018-06-15T18:00:21.821Z,23.37
2018-06-15T18:02:58.154Z,23.29
2018-06-15T18:05:34.313Z,23.35
2018-06-15T18:08:12.282Z,23.39
2018-06-15T18:10:48.421Z,23.39
2018-06-15T18:13:24.920Z,23.50
2018-06-15T18:16:01.174Z,23.48
2018-06-15T18:18:37.330Z,23.45
2018-06-15T18:21:13.043Z,23.42
2018-06-15T18:23:49.860Z,23.23
2018-06-15T18:26:25.579Z,23.10
2018-06-15T18:29:02.932Z,23.00
2018-06-15T18:31:38.981Z,22.96
2018-06-15T18:34:14.789Z,22.87
2018-06-15T18:36:51.431Z,22.70
2018-06-15T18:39:30.310Z,22.51
2018-06-15T18:42:06.475Z,22.37
2018-06-15T18:44:42.785Z,22.14
2018-06-15T18:47:19.642Z,22.02
2018-06-15T18:49:55.770Z,21.82
2018-06-15T18:52:31.774Z,21.74
2018-06-15T18:55:07.450Z,21.61
2018-06-15T18:57:43.137Z,21.42
2018-06-15T19:00:19.405Z,21.37
2018-06-15T19:02:55.486Z,21.24
2018-06-15T19:05:31.950Z,21.19
2018-06-15T19:08:08.655Z,21.08
2018-06-15T19:10:44.677Z,20.90
2018-06-15T19:13:20.378Z,20.71
2018-06-15T19:15:56.436Z,20.63
2018-06-15T19:18:32.205Z,20.41
2018-06-15T19:21:43.549Z,20.26
2018-06-15T19:24:19.759Z,20.16
2018-06-15T19:26:56.204Z,20.28
2018-06-15T19:29:31.980Z,20.13
2018-06-15T19:32:09.044Z,20.11
2018-06-15T19:34:46.875Z,19.93
2018-06-15T19:37:22.785Z,19.61
2018-06-15T19:39:59.971Z,19.62
2018-06-15T19:42:36.117Z,19.68
2018-06-15T19:45:11.840Z,19.76
2018-06-15T19:47:49.702Z,19.74
2018-06-15T19:50:27.206Z,19.80
2018-06-15T19:53:04.181Z,19.72
2018-06-15T19:55:40.185Z,19.75
2018-06-15T19:58:16.315Z,19.67
2018-06-15T20:00:59.977Z,19.53
2018-06-15T20:03:39.693Z,19.33
2018-06-15T20:06:16.451Z,19.36
2018-06-15T20:08:53.168Z,19.32
2018-06-15T20:11:30.742Z,19.26
2018-06-15T20:14:06.849Z,19.10
2018-06-15T20:16:42.667Z,19.13
2018-06-15T20:19:19.648Z,19.09
2018-06-15T20:21:55.210Z,19.10
2018-06-15T20:24:31.896Z,18.97
2018-06-15T20:27:07.625Z,18.74
2018-06-15T20:29:43.675Z,18.66
2018-06-15T20:32:20.087Z,18.50
2018-06-15T20:34:56.031Z,18.57
2018-06-15T20:37:32.655Z,18.56
2018-06-15T20:40:08.297Z,18.65
2018-06-15T20:42:44.032Z,18.57
2018-06-15T20:45:20.124Z,18.42
2018-06-15T20:47:56.317Z,18.42
2018-06-15T20:50:32.099Z,18.35
2018-06-15T20:53:08.938Z,18.26
2018-06-15T20:55:46.359Z,18.24
2018-06-15T20:58:24.170Z,18.10
2018-06-15T21:01:00.923Z,18.00
2018-06-15T21:03:37.123Z,18.01
2018-06-15T21:06:13.728Z,17.87
2018-06-15T21:08:49.681Z,17.80
2018-06-15T21:11:26.123Z,17.72
2018-06-15T21:14:02.850Z,17.57
2018-06-15T21:16:38.703Z,17.52
2018-06-15T21:19:15.164Z,17.46
2018-06-15T21:21:51.238Z,17.38
2018-06-15T21:24:27.038Z,17.49
2018-06-15T21:27:03.432Z,17.51
2018-06-15T21:29:40.990Z,17.43
2018-06-15T21:32:16.633Z,17.30
2018-06-15T21:34:52.484Z,17.25
2018-06-15T21:37:33.578Z,17.12
2018-06-15T21:40:18.255Z,17.02
2018-06-15T21:42:56.664Z,17.01
2018-06-15T21:45:32.213Z,16.94
2018-06-15T21:48:07.762Z,16.90
2018-06-15T21:50:43.323Z,16.77
2018-06-15T21:53:19.836Z,16.74
2018-06-15T21:55:56.043Z,16.83
2018-06-15T21:58:32.976Z,16.61
2018-06-15T22:01:08.445Z,16.52
2018-06-15T22:03:45.165Z,16.48
2018-06-15T22:06:21.090Z,16.45
2018-06-15T22:08:57.113Z,16.28
2018-06-15T22:11:32.886Z,16.25
2018-06-15T22:14:09.216Z,16.07
2018-06-15T22:16:50.685Z,15.90
2018-06-15T22:19:26.429Z,15.99
2018-06-15T22:22:01.927Z,15.84
2018-06-15T22:24:37.781Z,16.06
2018-06-15T22:27:14.443Z,15.86
2018-06-15T22:29:49.998Z,15.76
2018-06-15T22:32:26.589Z,15.75
2018-06-15T22:35:02.364Z,15.78
2018-06-15T22:37:39.390Z,15.66
2018-06-15T22:40:15.045Z,15.71
2018-06-15T22:42:51.991Z,15.60
2018-06-15T22:45:28.694Z,15.56
2018-06-15T22:48:05.378Z,15.55
2018-06-15T22:50:40.860Z,15.56
2018-06-15T22:53:16.699Z,15.51
2018-06-15T22:55:54.157Z,15.30
2018-06-15T22:58:30.152Z,15.27
2018-06-15T23:01:07.719Z,15.26
2018-06-15T23:03:43.274Z,15.24
2018-06-15T23:06:19.015Z,15.20
2018-06-15T23:08:55.103Z,15.22
2018-06-15T23:11:31.648Z,15.05
2018-06-15T23:14:08.013Z,14.91
2018-06-15T23:16:44.439Z,14.80
2018-06-15T23:19:20.052Z,14.65
2018-06-15T23:21:57.093Z,14.52
2018-06-15T23:24:33.467Z,14.56
2018-06-15T23:27:09.322Z,14.51
2018-06-15T23:29:46.114Z,14.40
2018-06-15T23:32:22.873Z,14.39
2018-06-15T23:34:59.268Z,14.40
2018-06-15T23:37:36.493Z,14.34
2018-06-15T23:40:13.403Z,14.26
2018-06-15T23:42:49.284Z,14.20
2018-06-15T23:45:25.840Z,14.19
2018-06-15T23:48:02.653Z,14.17
2018-06-15T23:50:39.107Z,14.11
2018-06-15T23:53:16.338Z,14.05
2018-06-15T23:55:51.858Z,14.00
2018-06-15T23:58:27.284Z,13.98
